FMCZ

Dzaoudzi Pamandzi International Airport

Dzaoudzi, Mayotte
METAR FMCZ 231600Z AUTO 30010KT 9999 FEW021/// SCT068/// 29/25 Q1008 NOSIG
Observed Flight Rules
Feb-23 @ 16:00 UTC (39 minutes ago) Visual Flight Rules
Wind Visibility Clouds
300° at 10 knots 10,000+ meters
  • Few at 2,100' AGL
  • Scattered at 6,800' AGL
Temperatures Readings
Current 29°C / 84°F
Dewpoint 25°C / 77°F
Humidity 79%
Altimeter 29.76" Hg
Pressure 1008 hPa
Elevation 7
METAR FMCZ 231600Z AUTO 30010KT 9999 FEW021/// SCT068/// 29/25 Q1008 NOSIG
Observed Flight Rules
Feb-23 @ 16:00 UTC
(39 minutes ago)
VFR
Wind Visibility
300° at 10 knots 10,000+ meters
Clouds
  • Few at 2,100' AGL
  • Scattered at 6,800' AGL
Temperature Dewpoint
29°C / 84°F 25°C / 77°F
Humidity Altimeter Pressure
79% 29.76" Hg 1008 hPa